Time;durP1;ratioP1;P1;durP2;ratioP2;P2;SDS_P1;SDS_P2;PMS_P1;PMS_P2;Temp;Humidity;BMP_temperature;BMP_pressure;BME280_temperature;BME280_humidity;BME280_pressure;Samples;Min_cycle;Max_cycle;Signal;HPM_P1;HPM_P2
2022/10/31 00:01:46;;;;;;;14.35;8.20;;;;;;;;;;20998812;28;20052;-72
2022/10/31 00:11:48;;;;;;;12.90;7.82;;;;;;;;;;20998723;28;20055;-71
2022/10/31 00:21:52;;;;;;;11.55;6.88;;;;;;;;;;20997769;28;20056;-73
2022/10/31 00:31:54;;;;;;;14.60;7.10;;;;;;;;;;20997843;28;20047;-72
2022/10/31 00:41:56;;;;;;;10.63;6.53;;;;;;;;;;20995955;28;20048;-73
2022/10/31 00:51:58;;;;;;;11.30;6.97;;;;;;;;;;20996875;28;20047;-73
2022/10/31 01:02:00;;;;;;;11.30;6.82;;;;;;;;;;20995846;28;20075;-73
2022/10/31 01:12:02;;;;;;;11.85;6.95;;;;;;;;;;21000097;28;20053;-74
2022/10/31 01:22:04;;;;;;;12.95;6.75;;;;;;;;;;21011101;28;20056;-72
2022/10/31 01:32:06;;;;;;;10.88;6.32;;;;;;;;;;21010047;28;20041;-73
2022/10/31 01:42:16;;;;;;;11.50;6.82;;;;;;;;;;21009835;28;20381;-72
2022/10/31 01:52:23;;;;;;;14.48;6.60;;;;;;;;;;21009815;28;20040;-73
2022/10/31 02:02:28;;;;;;;9.55;5.68;;;;;;;;;;21008267;28;20078;-73
2022/10/31 02:12:32;;;;;;;12.13;5.95;;;;;;;;;;21007622;28;20097;-72
2022/10/31 02:22:34;;;;;;;10.27;5.57;;;;;;;;;;21006522;28;20048;-72
2022/10/31 02:32:57;;;;;;;8.95;5.80;;;;;;;;;;21006081;28;20049;-72
2022/10/31 02:43:00;;;;;;;12.15;6.43;;;;;;;;;;21003468;28;20055;-72
2022/10/31 02:53:04;;;;;;;13.13;6.90;;;;;;;;;;21005092;28;20044;-73
2022/10/31 03:03:15;;;;;;;8.35;6.10;;;;;;;;;;21003757;28;20060;-73
2022/10/31 03:13:27;;;;;;;12.90;8.13;;;;;;;;;;21004764;28;20375;-72
2022/10/31 03:23:31;;;;;;;10.90;6.22;;;;;;;;;;21001663;28;20481;-72
2022/10/31 03:33:36;;;;;;;11.35;6.45;;;;;;;;;;21001103;28;20040;-73
2022/10/31 03:43:44;;;;;;;12.57;5.95;;;;;;;;;;20999056;28;20071;-72
2022/10/31 03:53:51;;;;;;;10.60;6.68;;;;;;;;;;21000003;28;20079;-73
2022/10/31 04:03:53;;;;;;;13.25;8.05;;;;;;;;;;20999887;28;20070;-73
2022/10/31 04:13:58;;;;;;;11.55;7.70;;;;;;;;;;20999003;28;20041;-74
2022/10/31 04:24:04;;;;;;;11.25;7.63;;;;;;;;;;20998989;28;20052;-74
2022/10/31 04:34:25;;;;;;;12.05;7.57;;;;;;;;;;20998237;28;20406;-73
2022/10/31 04:44:47;;;;;;;10.40;6.00;;;;;;;;;;20961943;28;20463;-73
2022/10/31 04:55:09;;;;;;;12.30;6.30;;;;;;;;;;20912494;28;20045;-73
2022/10/31 05:05:30;;;;;;;14.82;6.60;;;;;;;;;;20913245;28;20378;-73
2022/10/31 05:15:35;;;;;;;10.93;6.00;;;;;;;;;;20912289;28;20119;-73
2022/10/31 05:25:37;;;;;;;9.88;6.75;;;;;;;;;;20913436;28;20059;-72
2022/10/31 05:35:40;;;;;;;13.20;6.97;;;;;;;;;;20911518;28;20049;-74
2022/10/31 05:45:42;;;;;;;12.18;6.50;;;;;;;;;;20952176;28;20413;-74
2022/10/31 05:55:45;;;;;;;11.10;6.15;;;;;;;;;;20993754;28;20062;-72
2022/10/31 06:05:47;;;;;;;14.43;7.22;;;;;;;;;;21005095;28;20052;-73
2022/10/31 06:15:49;;;;;;;15.52;6.85;;;;;;;;;;21007501;28;20090;-72
2022/10/31 06:25:50;;;;;;;11.15;6.88;;;;;;;;;;21006820;28;20489;-72
2022/10/31 06:35:52;;;;;;;14.88;7.30;;;;;;;;;;21006539;28;20041;-73
2022/10/31 06:45:54;;;;;;;17.60;6.90;;;;;;;;;;21006200;28;20413;-72
2022/10/31 06:55:57;;;;;;;12.07;7.30;;;;;;;;;;21005165;28;20186;-73
2022/10/31 07:05:59;;;;;;;14.95;7.97;;;;;;;;;;21003116;28;20049;-73
2022/10/31 07:16:02;;;;;;;16.92;7.50;;;;;;;;;;21003305;28;20157;-72
2022/10/31 07:26:04;;;;;;;17.75;7.97;;;;;;;;;;21001370;28;20105;-73
2022/10/31 07:36:06;;;;;;;40.97;9.57;;;;;;;;;;21001126;28;20048;-74
2022/10/31 07:46:08;;;;;;;18.58;8.13;;;;;;;;;;20999871;28;20413;-73
2022/10/31 07:56:10;;;;;;;14.82;7.93;;;;;;;;;;21001568;28;20514;-73
2022/10/31 08:06:13;;;;;;;19.35;9.23;;;;;;;;;;20999402;28;20052;-72
2022/10/31 08:16:15;;;;;;;19.65;9.13;;;;;;;;;;20997885;28;20451;-72
2022/10/31 08:26:17;;;;;;;14.80;9.52;;;;;;;;;;20996109;28;20056;-73
2022/10/31 08:36:19;;;;;;;14.82;9.18;;;;;;;;;;20996973;28;20055;-71
2022/10/31 08:46:21;;;;;;;21.83;8.32;;;;;;;;;;20995652;28;20501;-72
2022/10/31 08:56:23;;;;;;;14.77;8.75;;;;;;;;;;20995611;28;20052;-72
2022/10/31 09:06:24;;;;;;;15.20;8.23;;;;;;;;;;20995500;28;20048;-72
2022/10/31 09:16:26;;;;;;;21.27;8.65;;;;;;;;;;20995429;28;20082;-72
2022/10/31 09:26:28;;;;;;;14.07;8.68;;;;;;;;;;20994765;28;20397;-74
2022/10/31 09:36:30;;;;;;;14.73;8.40;;;;;;;;;;21002280;28;20091;-73
2022/10/31 09:46:54;;;;;;;17.30;8.57;;;;;;;;;;21008617;28;20056;-73
2022/10/31 09:56:57;;;;;;;17.65;8.82;;;;;;;;;;21008987;28;20056;-72
2022/10/31 10:07:00;;;;;;;26.85;8.43;;;;;;;;;;21007825;28;20053;-75
2022/10/31 10:17:20;;;;;;;16.02;8.88;;;;;;;;;;21008960;28;20048;-74
2022/10/31 10:27:28;;;;;;;13.50;5.55;;;;;;;;;;21009537;28;20194;-72
2022/10/31 10:37:34;;;;;;;14.80;6.70;;;;;;;;;;21006118;28;20040;-73
2022/10/31 10:47:51;;;;;;;13.15;7.55;;;;;;;;;;21006208;28;20053;-67
2022/10/31 10:57:57;;;;;;;27.67;9.75;;;;;;;;;;21004968;28;20055;-73
2022/10/31 11:07:59;;;;;;;14.27;7.07;;;;;;;;;;21004405;28;20049;-71
2022/10/31 11:18:02;;;;;;;17.30;7.45;;;;;;;;;;21006210;28;20143;-71
2022/10/31 11:28:05;;;;;;;14.25;6.63;;;;;;;;;;21003899;28;20044;-76
2022/10/31 11:38:07;;;;;;;17.13;7.75;;;;;;;;;;21001627;28;20189;-73
2022/10/31 11:48:20;;;;;;;15.50;7.28;;;;;;;;;;21002126;28;20102;-73
2022/10/31 11:58:23;;;;;;;14.35;7.28;;;;;;;;;;21003191;28;20051;-72
2022/10/31 12:08:26;;;;;;;14.30;7.78;;;;;;;;;;20998735;28;20049;-71
2022/10/31 12:18:28;;;;;;;26.02;7.93;;;;;;;;;;20999478;28;20407;-71
2022/10/31 12:28:41;;;;;;;96.68;14.27;;;;;;;;;;20999000;28;20139;-64
2022/10/31 12:38:43;;;;;;;71.15;11.88;;;;;;;;;;20998829;28;20076;-69
2022/10/31 12:48:45;;;;;;;23.20;9.15;;;;;;;;;;20996915;28;20493;-74
2022/10/31 12:58:52;;;;;;;21.38;8.82;;;;;;;;;;20996311;28;20110;-76
2022/10/31 13:08:56;;;;;;;23.60;7.85;;;;;;;;;;21000343;28;20502;-75
2022/10/31 13:19:17;;;;;;;21.13;9.55;;;;;;;;;;21012597;28;20481;-71
2022/10/31 13:29:30;;;;;;;19.00;7.82;;;;;;;;;;21011467;28;20500;-65
2022/10/31 13:39:47;;;;;;;16.83;8.93;;;;;;;;;;21009513;28;20044;-68
2022/10/31 13:49:49;;;;;;;25.40;11.00;;;;;;;;;;21008834;28;20055;-62
2022/10/31 13:59:54;;;;;;;20.13;8.23;;;;;;;;;;21008560;28;20147;-62
2022/10/31 14:10:06;;;;;;;19.25;7.55;;;;;;;;;;21008771;28;20397;-61
2022/10/31 14:20:12;;;;;;;11.35;5.40;;;;;;;;;;21006262;28;20049;-61
2022/10/31 14:30:15;;;;;;;13.85;7.00;;;;;;;;;;21006485;28;20048;-63
2022/10/31 14:40:35;;;;;;;11.23;5.60;;;;;;;;;;21006544;28;20056;-63
2022/10/31 14:50:38;;;;;;;12.23;5.05;;;;;;;;;;21004935;28;20049;-64
2022/10/31 15:00:43;;;;;;;11.70;4.80;;;;;;;;;;21004452;28;20056;-62
2022/10/31 15:10:46;;;;;;;13.23;5.15;;;;;;;;;;21004260;28;20416;-61
2022/10/31 15:20:48;;;;;;;11.95;4.43;;;;;;;;;;21003318;28;20502;-61
2022/10/31 15:30:51;;;;;;;11.45;5.43;;;;;;;;;;21001548;28;20131;-61
2022/10/31 15:40:55;;;;;;;10.27;4.97;;;;;;;;;;21000434;28;20052;-61
2022/10/31 15:50:58;;;;;;;13.10;5.22;;;;;;;;;;20999549;28;20045;-64
2022/10/31 16:01:01;;;;;;;10.38;5.50;;;;;;;;;;20999463;28;20052;-61
2022/10/31 16:11:06;;;;;;;13.88;5.50;;;;;;;;;;20997845;28;20139;-61
2022/10/31 16:21:09;;;;;;;13.68;6.80;;;;;;;;;;20996476;28;20076;-62
2022/10/31 16:31:15;;;;;;;14.75;7.20;;;;;;;;;;20996914;28;20052;-62
2022/10/31 16:41:17;;;;;;;10.27;5.60;;;;;;;;;;20995506;28;20084;-60
2022/10/31 16:51:19;;;;;;;11.95;4.55;;;;;;;;;;20995912;28;20044;-62
2022/10/31 17:01:21;;;;;;;8.07;4.13;;;;;;;;;;20995016;28;20060;-60
2022/10/31 17:11:25;;;;;;;8.70;4.90;;;;;;;;;;20996062;28;20477;-60
2022/10/31 17:21:27;;;;;;;5.97;2.83;;;;;;;;;;20994444;28;20053;-61
2022/10/31 17:31:31;;;;;;;13.77;5.97;;;;;;;;;;20993897;28;20076;-62
2022/10/31 17:41:33;;;;;;;4.50;2.47;;;;;;;;;;20993537;28;20063;-61
2022/10/31 17:51:35;;;;;;;10.63;4.82;;;;;;;;;;20993373;28;20471;-62
2022/10/31 18:01:37;;;;;;;4.60;1.30;;;;;;;;;;21005238;28;20053;-62
2022/10/31 18:11:39;;;;;;;4.47;1.90;;;;;;;;;;21008171;28;20048;-60
2022/10/31 18:21:42;;;;;;;3.15;1.90;;;;;;;;;;21006159;28;20052;-60
2022/10/31 18:31:47;;;;;;;5.22;2.22;;;;;;;;;;21005884;28;20052;-61
2022/10/31 18:41:49;;;;;;;5.47;2.17;;;;;;;;;;21004665;28;20056;-61
2022/10/31 18:51:51;;;;;;;5.43;2.55;;;;;;;;;;21004154;28;20087;-59
2022/10/31 19:01:53;;;;;;;7.47;2.30;;;;;;;;;;21003215;28;20074;-61
2022/10/31 19:11:55;;;;;;;8.68;4.10;;;;;;;;;;21003314;28;20044;-61
2022/10/31 19:21:57;;;;;;;8.27;3.20;;;;;;;;;;21001543;28;20136;-62
2022/10/31 19:31:59;;;;;;;7.53;4.00;;;;;;;;;;21000469;28;20135;-60
2022/10/31 19:42:01;;;;;;;10.25;5.45;;;;;;;;;;21000127;28;20126;-60
2022/10/31 19:52:03;;;;;;;5.88;3.70;;;;;;;;;;20998723;28;20055;-61
2022/10/31 20:02:05;;;;;;;6.95;4.03;;;;;;;;;;20999177;28;20515;-61
2022/10/31 20:12:07;;;;;;;9.35;4.63;;;;;;;;;;20999845;28;20048;-63
2022/10/31 20:22:10;;;;;;;6.68;3.53;;;;;;;;;;20996586;28;20057;-62
2022/10/31 20:32:12;;;;;;;8.60;4.35;;;;;;;;;;20996093;28;20040;-62
2022/10/31 20:42:14;;;;;;;6.57;3.85;;;;;;;;;;20995189;28;20063;-63
2022/10/31 20:52:16;;;;;;;12.93;6.43;;;;;;;;;;20995179;28;20135;-62
2022/10/31 21:02:18;;;;;;;9.85;4.97;;;;;;;;;;20994982;28;20060;-61
2022/10/31 21:12:20;;;;;;;8.85;4.28;;;;;;;;;;20994676;28;20137;-62
2022/10/31 21:22:22;;;;;;;10.20;4.97;;;;;;;;;;20995040;28;20049;-61
2022/10/31 21:32:24;;;;;;;14.15;5.28;;;;;;;;;;21002595;28;20505;-62
2022/10/31 21:42:26;;;;;;;7.95;4.75;;;;;;;;;;20993792;28;20455;-62
2022/10/31 21:52:28;;;;;;;6.97;3.95;;;;;;;;;;21008819;28;20127;-61
2022/10/31 22:02:30;;;;;;;6.90;4.20;;;;;;;;;;21008335;28;20059;-61
2022/10/31 22:12:32;;;;;;;12.10;5.00;;;;;;;;;;21007695;28;20446;-61
2022/10/31 22:22:34;;;;;;;6.43;4.07;;;;;;;;;;21007093;28;20048;-61
2022/10/31 22:32:36;;;;;;;8.77;4.60;;;;;;;;;;21005960;28;20052;-62
2022/10/31 22:42:37;;;;;;;11.80;5.40;;;;;;;;;;21003776;28;20052;-60
2022/10/31 22:52:39;;;;;;;10.95;4.88;;;;;;;;;;21005438;28;20397;-62
2022/10/31 23:02:41;;;;;;;13.40;6.35;;;;;;;;;;21004168;28;20053;-62
2022/10/31 23:23:04;;;;;;;9.82;4.53;;;;;;;;;;21002872;28;20056;-63
2022/10/31 23:33:06;;;;;;;11.23;5.43;;;;;;;;;;21001344;28;20049;-63
2022/10/31 23:43:08;;;;;;;9.27;5.45;;;;;;;;;;21000603;28;20088;-62
2022/10/31 23:53:10;;;;;;;10.68;5.00;;;;;;;;;;20998852;28;20091;-61
